sensor_id;sensor_type;location;lat;lon;timestamp;P1;durP1;ratioP1;P2;durP2;ratioP2
41952;SDS011;63613;28.200;112.870;2023-04-25T00:01:20;8.57;;;7.68;;
41952;SDS011;63613;28.200;112.870;2023-04-25T00:03:47;8.55;;;7.65;;
41952;SDS011;63613;28.200;112.870;2023-04-25T00:06:14;8.95;;;7.35;;
41952;SDS011;63613;28.200;112.870;2023-04-25T00:08:43;9.98;;;8.18;;
41952;SDS011;63613;28.200;112.870;2023-04-25T00:11:10;9.93;;;8.30;;
41952;SDS011;63613;28.200;112.870;2023-04-25T00:13:36;9.27;;;7.93;;
41952;SDS011;63613;28.200;112.870;2023-04-25T00:16:25;10.77;;;8.27;;
41952;SDS011;63613;28.200;112.870;2023-04-25T00:18:52;9.10;;;8.20;;
41952;SDS011;63613;28.200;112.870;2023-04-25T00:21:19;10.00;;;8.10;;
41952;SDS011;63613;28.200;112.870;2023-04-25T00:23:47;9.38;;;8.38;;
41952;SDS011;63613;28.200;112.870;2023-04-25T00:26:34;9.75;;;8.75;;
41952;SDS011;63613;28.200;112.870;2023-04-25T00:29:01;9.88;;;8.80;;
41952;SDS011;63613;28.200;112.870;2023-04-25T00:31:28;11.57;;;9.45;;
41952;SDS011;63613;28.200;112.870;2023-04-25T00:33:55;9.75;;;8.75;;
41952;SDS011;63613;28.200;112.870;2023-04-25T00:36:22;10.70;;;8.63;;
41952;SDS011;63613;28.200;112.870;2023-04-25T00:38:49;11.45;;;8.85;;
41952;SDS011;63613;28.200;112.870;2023-04-25T00:41:16;10.73;;;9.18;;
41952;SDS011;63613;28.200;112.870;2023-04-25T00:43:44;11.15;;;9.10;;
41952;SDS011;63613;28.200;112.870;2023-04-25T00:46:11;11.40;;;9.52;;
41952;SDS011;63613;28.200;112.870;2023-04-25T00:48:38;10.68;;;9.35;;
41952;SDS011;63613;28.200;112.870;2023-04-25T00:51:05;9.38;;;8.38;;
41952;SDS011;63613;28.200;112.870;2023-04-25T00:53:32;11.57;;;10.38;;
41952;SDS011;63613;28.200;112.870;2023-04-25T00:55:59;12.30;;;9.75;;
41952;SDS011;63613;28.200;112.870;2023-04-25T00:58:26;10.25;;;9.15;;
41952;SDS011;63613;28.200;112.870;2023-04-25T01:00:56;11.35;;;9.30;;
41952;SDS011;63613;28.200;112.870;2023-04-25T01:03:24;10.95;;;9.20;;
41952;SDS011;63613;28.200;112.870;2023-04-25T01:05:53;9.90;;;8.90;;
41952;SDS011;63613;28.200;112.870;2023-04-25T01:08:21;10.27;;;8.98;;
41952;SDS011;63613;28.200;112.870;2023-04-25T01:10:53;10.63;;;9.07;;
41952;SDS011;63613;28.200;112.870;2023-04-25T01:13:19;11.98;;;9.90;;
41952;SDS011;63613;28.200;112.870;2023-04-25T01:15:46;11.77;;;10.07;;
41952;SDS011;63613;28.200;112.870;2023-04-25T01:18:14;11.25;;;9.88;;
41952;SDS011;63613;28.200;112.870;2023-04-25T01:20:41;12.43;;;10.35;;
41952;SDS011;63613;28.200;112.870;2023-04-25T01:23:08;11.80;;;9.65;;
41952;SDS011;63613;28.200;112.870;2023-04-25T01:25:36;11.68;;;10.02;;
41952;SDS011;63613;28.200;112.870;2023-04-25T01:28:03;12.63;;;10.43;;
41952;SDS011;63613;28.200;112.870;2023-04-25T01:30:31;15.52;;;11.20;;
41952;SDS011;63613;28.200;112.870;2023-04-25T01:32:58;12.23;;;10.73;;
41952;SDS011;63613;28.200;112.870;2023-04-25T01:35:26;11.43;;;10.13;;
41952;SDS011;63613;28.200;112.870;2023-04-25T01:37:53;12.40;;;11.02;;
41952;SDS011;63613;28.200;112.870;2023-04-25T01:40:22;11.40;;;10.20;;
41952;SDS011;63613;28.200;112.870;2023-04-25T01:42:50;11.98;;;10.68;;
41952;SDS011;63613;28.200;112.870;2023-04-25T01:45:18;11.50;;;10.13;;
41952;SDS011;63613;28.200;112.870;2023-04-25T01:47:44;12.77;;;10.73;;
41952;SDS011;63613;28.200;112.870;2023-04-25T01:50:18;12.73;;;10.73;;
41952;SDS011;63613;28.200;112.870;2023-04-25T01:52:45;12.75;;;11.18;;
41952;SDS011;63613;28.200;112.870;2023-04-25T01:55:12;13.15;;;10.70;;
41952;SDS011;63613;28.200;112.870;2023-04-25T01:57:39;11.77;;;10.50;;
41952;SDS011;63613;28.200;112.870;2023-04-25T02:00:07;12.85;;;10.73;;
41952;SDS011;63613;28.200;112.870;2023-04-25T02:02:35;14.85;;;11.23;;
41952;SDS011;63613;28.200;112.870;2023-04-25T02:05:02;12.48;;;10.93;;
41952;SDS011;63613;28.200;112.870;2023-04-25T02:07:29;12.70;;;11.25;;
41952;SDS011;63613;28.200;112.870;2023-04-25T02:09:56;12.88;;;10.50;;
41952;SDS011;63613;28.200;112.870;2023-04-25T02:12:23;12.82;;;10.43;;
41952;SDS011;63613;28.200;112.870;2023-04-25T02:14:51;13.30;;;10.48;;
41952;SDS011;63613;28.200;112.870;2023-04-25T02:17:23;13.55;;;10.40;;
41952;SDS011;63613;28.200;112.870;2023-04-25T02:19:49;13.15;;;10.63;;
41952;SDS011;63613;28.200;112.870;2023-04-25T02:22:16;12.15;;;10.85;;
41952;SDS011;63613;28.200;112.870;2023-04-25T02:24:43;12.85;;;11.45;;
41952;SDS011;63613;28.200;112.870;2023-04-25T02:27:10;14.60;;;10.45;;
41952;SDS011;63613;28.200;112.870;2023-04-25T02:29:37;14.43;;;11.52;;
41952;SDS011;63613;28.200;112.870;2023-04-25T02:32:04;14.02;;;11.10;;
41952;SDS011;63613;28.200;112.870;2023-04-25T02:34:31;13.52;;;10.32;;
41952;SDS011;63613;28.200;112.870;2023-04-25T02:36:58;11.00;;;9.80;;
41952;SDS011;63613;28.200;112.870;2023-04-25T02:39:25;12.32;;;10.93;;
41952;SDS011;63613;28.200;112.870;2023-04-25T02:41:52;13.57;;;11.75;;
41952;SDS011;63613;28.200;112.870;2023-04-25T02:44:19;15.45;;;11.15;;
41952;SDS011;63613;28.200;112.870;2023-04-25T02:46:48;12.75;;;10.05;;
41952;SDS011;63613;28.200;112.870;2023-04-25T02:49:15;12.75;;;10.45;;
41952;SDS011;63613;28.200;112.870;2023-04-25T02:51:42;14.23;;;10.75;;
41952;SDS011;63613;28.200;112.870;2023-04-25T02:54:09;12.70;;;10.05;;
41952;SDS011;63613;28.200;112.870;2023-04-25T02:56:35;13.63;;;10.77;;
41952;SDS011;63613;28.200;112.870;2023-04-25T02:59:02;12.38;;;10.98;;
41952;SDS011;63613;28.200;112.870;2023-04-25T03:01:30;12.85;;;10.68;;
41952;SDS011;63613;28.200;112.870;2023-04-25T03:03:57;13.52;;;10.85;;
41952;SDS011;63613;28.200;112.870;2023-04-25T03:06:25;13.88;;;11.68;;
41952;SDS011;63613;28.200;112.870;2023-04-25T03:08:52;14.70;;;11.82;;
41952;SDS011;63613;28.200;112.870;2023-04-25T03:11:19;16.27;;;13.55;;
41952;SDS011;63613;28.200;112.870;2023-04-25T03:13:45;18.40;;;13.90;;
41952;SDS011;63613;28.200;112.870;2023-04-25T03:16:12;19.40;;;14.55;;
41952;SDS011;63613;28.200;112.870;2023-04-25T03:18:39;19.20;;;15.60;;
41952;SDS011;63613;28.200;112.870;2023-04-25T03:21:06;21.38;;;15.18;;
41952;SDS011;63613;28.200;112.870;2023-04-25T03:23:36;17.70;;;14.30;;
41952;SDS011;63613;28.200;112.870;2023-04-25T03:26:23;18.45;;;14.70;;
41952;SDS011;63613;28.200;112.870;2023-04-25T03:28:50;19.38;;;13.85;;
41952;SDS011;63613;28.200;112.870;2023-04-25T03:31:17;16.23;;;13.75;;
41952;SDS011;63613;28.200;112.870;2023-04-25T03:33:44;17.45;;;14.20;;
41952;SDS011;63613;28.200;112.870;2023-04-25T03:36:10;18.40;;;13.25;;
41952;SDS011;63613;28.200;112.870;2023-04-25T03:38:37;15.95;;;12.77;;
41952;SDS011;63613;28.200;112.870;2023-04-25T03:41:24;16.20;;;13.90;;
41952;SDS011;63613;28.200;112.870;2023-04-25T03:43:51;16.42;;;13.20;;
41952;SDS011;63613;28.200;112.870;2023-04-25T03:46:18;16.83;;;12.52;;
41952;SDS011;63613;28.200;112.870;2023-04-25T03:48:45;16.65;;;12.70;;
41952;SDS011;63613;28.200;112.870;2023-04-25T03:51:11;14.60;;;12.57;;
41952;SDS011;63613;28.200;112.870;2023-04-25T03:53:38;14.13;;;12.15;;
41952;SDS011;63613;28.200;112.870;2023-04-25T03:56:05;14.48;;;12.05;;
41952;SDS011;63613;28.200;112.870;2023-04-25T03:58:32;15.07;;;12.23;;
41952;SDS011;63613;28.200;112.870;2023-04-25T04:00:59;16.02;;;12.35;;
41952;SDS011;63613;28.200;112.870;2023-04-25T04:03:28;13.88;;;11.80;;
41952;SDS011;63613;28.200;112.870;2023-04-25T04:05:58;17.50;;;12.15;;
41952;SDS011;63613;28.200;112.870;2023-04-25T04:08:25;16.58;;;12.93;;
41952;SDS011;63613;28.200;112.870;2023-04-25T04:10:52;15.82;;;12.90;;
41952;SDS011;63613;28.200;112.870;2023-04-25T04:13:19;14.70;;;12.30;;
41952;SDS011;63613;28.200;112.870;2023-04-25T04:15:45;17.85;;;13.60;;
41952;SDS011;63613;28.200;112.870;2023-04-25T04:18:12;16.17;;;13.73;;
41952;SDS011;63613;28.200;112.870;2023-04-25T04:20:39;15.60;;;13.65;;
41952;SDS011;63613;28.200;112.870;2023-04-25T04:23:06;16.95;;;12.73;;
41952;SDS011;63613;28.200;112.870;2023-04-25T04:25:33;21.02;;;14.07;;
41952;SDS011;63613;28.200;112.870;2023-04-25T04:28:01;18.25;;;14.30;;
41952;SDS011;63613;28.200;112.870;2023-04-25T04:30:28;18.60;;;13.80;;
41952;SDS011;63613;28.200;112.870;2023-04-25T04:32:56;19.77;;;13.77;;
41952;SDS011;63613;28.200;112.870;2023-04-25T04:35:23;18.67;;;13.73;;
41952;SDS011;63613;28.200;112.870;2023-04-25T04:37:50;17.85;;;13.30;;
41952;SDS011;63613;28.200;112.870;2023-04-25T04:40:17;15.35;;;12.68;;
41952;SDS011;63613;28.200;112.870;2023-04-25T04:42:44;18.73;;;13.52;;
41952;SDS011;63613;28.200;112.870;2023-04-25T04:45:11;20.17;;;15.55;;
41952;SDS011;63613;28.200;112.870;2023-04-25T04:47:38;23.45;;;15.85;;
41952;SDS011;63613;28.200;112.870;2023-04-25T04:50:08;21.80;;;15.40;;
41952;SDS011;63613;28.200;112.870;2023-04-25T04:52:36;19.73;;;14.77;;
41952;SDS011;63613;28.200;112.870;2023-04-25T04:55:23;18.70;;;13.23;;
41952;SDS011;63613;28.200;112.870;2023-04-25T04:57:51;19.48;;;14.68;;
41952;SDS011;63613;28.200;112.870;2023-04-25T05:00:18;18.33;;;13.27;;
41952;SDS011;63613;28.200;112.870;2023-04-25T05:02:46;19.13;;;15.38;;
41952;SDS011;63613;28.200;112.870;2023-04-25T05:05:12;18.98;;;14.30;;
41952;SDS011;63613;28.200;112.870;2023-04-25T05:07:39;23.17;;;14.70;;
41952;SDS011;63613;28.200;112.870;2023-04-25T05:10:07;19.27;;;13.88;;
41952;SDS011;63613;28.200;112.870;2023-04-25T05:12:54;18.23;;;13.23;;
41952;SDS011;63613;28.200;112.870;2023-04-25T05:15:21;20.02;;;12.93;;
41952;SDS011;63613;28.200;112.870;2023-04-25T05:17:49;22.02;;;13.48;;
41952;SDS011;63613;28.200;112.870;2023-04-25T05:20:16;21.70;;;13.43;;
41952;SDS011;63613;28.200;112.870;2023-04-25T05:22:45;21.73;;;14.73;;
41952;SDS011;63613;28.200;112.870;2023-04-25T05:25:12;18.60;;;13.45;;
41952;SDS011;63613;28.200;112.870;2023-04-25T05:27:39;18.05;;;13.13;;
41952;SDS011;63613;28.200;112.870;2023-04-25T05:30:11;18.20;;;12.95;;
41952;SDS011;63613;28.200;112.870;2023-04-25T05:32:38;22.00;;;13.48;;
41952;SDS011;63613;28.200;112.870;2023-04-25T05:35:05;20.73;;;13.13;;
41952;SDS011;63613;28.200;112.870;2023-04-25T05:37:32;18.40;;;13.55;;
41952;SDS011;63613;28.200;112.870;2023-04-25T05:39:59;17.27;;;13.32;;
41952;SDS011;63613;28.200;112.870;2023-04-25T05:42:26;20.65;;;13.35;;
41952;SDS011;63613;28.200;112.870;2023-04-25T05:45:16;18.95;;;13.02;;
41952;SDS011;63613;28.200;112.870;2023-04-25T05:47:46;16.58;;;12.70;;
41952;SDS011;63613;28.200;112.870;2023-04-25T05:50:13;17.95;;;12.57;;
41952;SDS011;63613;28.200;112.870;2023-04-25T05:52:41;14.85;;;12.07;;
41952;SDS011;63613;28.200;112.870;2023-04-25T05:55:08;16.58;;;12.60;;
41952;SDS011;63613;28.200;112.870;2023-04-25T05:57:36;15.52;;;12.35;;
41952;SDS011;63613;28.200;112.870;2023-04-25T06:00:02;17.08;;;12.95;;
41952;SDS011;63613;28.200;112.870;2023-04-25T06:02:34;15.38;;;12.20;;
41952;SDS011;63613;28.200;112.870;2023-04-25T06:05:01;17.27;;;12.63;;
41952;SDS011;63613;28.200;112.870;2023-04-25T06:07:30;14.55;;;11.55;;
41952;SDS011;63613;28.200;112.870;2023-04-25T06:10:00;15.90;;;11.65;;
41952;SDS011;63613;28.200;112.870;2023-04-25T06:12:30;15.50;;;11.95;;
41952;SDS011;63613;28.200;112.870;2023-04-25T06:14:59;18.55;;;12.25;;
41952;SDS011;63613;28.200;112.870;2023-04-25T06:17:26;15.70;;;11.15;;
41952;SDS011;63613;28.200;112.870;2023-04-25T06:19:53;15.23;;;11.95;;
41952;SDS011;63613;28.200;112.870;2023-04-25T06:22:19;14.60;;;11.02;;
41952;SDS011;63613;28.200;112.870;2023-04-25T06:24:46;13.98;;;10.55;;
41952;SDS011;63613;28.200;112.870;2023-04-25T06:27:16;15.23;;;11.85;;
41952;SDS011;63613;28.200;112.870;2023-04-25T06:29:43;15.23;;;11.20;;
41952;SDS011;63613;28.200;112.870;2023-04-25T06:32:11;12.18;;;10.27;;
41952;SDS011;63613;28.200;112.870;2023-04-25T06:34:38;15.07;;;11.50;;
41952;SDS011;63613;28.200;112.870;2023-04-25T06:37:04;14.70;;;11.15;;
41952;SDS011;63613;28.200;112.870;2023-04-25T06:39:34;13.73;;;11.18;;
41952;SDS011;63613;28.200;112.870;2023-04-25T06:42:00;14.05;;;10.65;;
41952;SDS011;63613;28.200;112.870;2023-04-25T06:44:28;13.13;;;9.95;;
41952;SDS011;63613;28.200;112.870;2023-04-25T06:46:57;13.63;;;9.93;;
41952;SDS011;63613;28.200;112.870;2023-04-25T06:49:47;12.05;;;9.85;;
41952;SDS011;63613;28.200;112.870;2023-04-25T06:52:14;13.07;;;10.38;;
41952;SDS011;63613;28.200;112.870;2023-04-25T06:54:40;13.20;;;9.50;;
41952;SDS011;63613;28.200;112.870;2023-04-25T06:57:07;11.85;;;9.63;;
41952;SDS011;63613;28.200;112.870;2023-04-25T06:59:35;12.63;;;10.75;;
41952;SDS011;63613;28.200;112.870;2023-04-25T07:02:03;12.75;;;10.10;;
41952;SDS011;63613;28.200;112.870;2023-04-25T07:04:29;12.68;;;9.23;;
41952;SDS011;63613;28.200;112.870;2023-04-25T07:06:58;13.77;;;10.20;;
41952;SDS011;63613;28.200;112.870;2023-04-25T07:09:31;10.48;;;9.40;;
41952;SDS011;63613;28.200;112.870;2023-04-25T07:11:59;13.80;;;9.88;;
41952;SDS011;63613;28.200;112.870;2023-04-25T07:14:29;12.77;;;9.30;;
41952;SDS011;63613;28.200;112.870;2023-04-25T07:16:56;10.98;;;9.20;;
41952;SDS011;63613;28.200;112.870;2023-04-25T07:19:23;10.90;;;9.23;;
41952;SDS011;63613;28.200;112.870;2023-04-25T07:21:52;12.85;;;9.55;;
41952;SDS011;63613;28.200;112.870;2023-04-25T07:24:19;10.18;;;8.85;;
41952;SDS011;63613;28.200;112.870;2023-04-25T07:26:46;11.40;;;8.68;;
41952;SDS011;63613;28.200;112.870;2023-04-25T07:29:13;11.27;;;8.40;;
41952;SDS011;63613;28.200;112.870;2023-04-25T07:31:40;10.52;;;9.43;;
41952;SDS011;63613;28.200;112.870;2023-04-25T07:34:07;10.07;;;9.02;;
41952;SDS011;63613;28.200;112.870;2023-04-25T07:36:55;10.18;;;9.00;;
41952;SDS011;63613;28.200;112.870;2023-04-25T07:39:23;9.52;;;8.55;;
41952;SDS011;63613;28.200;112.870;2023-04-25T07:41:49;10.60;;;8.93;;
41952;SDS011;63613;28.200;112.870;2023-04-25T07:44:16;9.30;;;8.30;;
41952;SDS011;63613;28.200;112.870;2023-04-25T07:47:04;9.38;;;8.15;;
41952;SDS011;63613;28.200;112.870;2023-04-25T07:49:37;9.77;;;8.85;;
41952;SDS011;63613;28.200;112.870;2023-04-25T07:52:05;9.85;;;8.52;;
41952;SDS011;63613;28.200;112.870;2023-04-25T07:54:33;10.05;;;7.90;;
41952;SDS011;63613;28.200;112.870;2023-04-25T07:57:00;8.80;;;7.88;;
41952;SDS011;63613;28.200;112.870;2023-04-25T07:59:27;9.05;;;7.85;;
41952;SDS011;63613;28.200;112.870;2023-04-25T08:01:57;10.27;;;8.48;;
41952;SDS011;63613;28.200;112.870;2023-04-25T08:04:27;8.60;;;7.70;;
41952;SDS011;63613;28.200;112.870;2023-04-25T08:06:54;9.68;;;8.68;;
41952;SDS011;63613;28.200;112.870;2023-04-25T08:09:22;8.93;;;8.02;;
41952;SDS011;63613;28.200;112.870;2023-04-25T08:11:49;9.40;;;8.40;;
41952;SDS011;63613;28.200;112.870;2023-04-25T08:14:16;8.95;;;7.72;;
41952;SDS011;63613;28.200;112.870;2023-04-25T08:16:43;8.85;;;7.55;;
41952;SDS011;63613;28.200;112.870;2023-04-25T08:19:10;10.05;;;7.75;;
41952;SDS011;63613;28.200;112.870;2023-04-25T08:21:37;8.13;;;7.30;;
41952;SDS011;63613;28.200;112.870;2023-04-25T08:24:04;8.88;;;7.97;;
41952;SDS011;63613;28.200;112.870;2023-04-25T08:26:31;9.40;;;8.18;;
41952;SDS011;63613;28.200;112.870;2023-04-25T08:28:58;10.80;;;8.55;;
41952;SDS011;63613;28.200;112.870;2023-04-25T08:31:25;8.95;;;8.05;;
41952;SDS011;63613;28.200;112.870;2023-04-25T08:33:52;8.35;;;7.55;;
41952;SDS011;63613;28.200;112.870;2023-04-25T08:36:19;8.88;;;7.32;;
41952;SDS011;63613;28.200;112.870;2023-04-25T08:38:46;8.38;;;7.57;;
41952;SDS011;63613;28.200;112.870;2023-04-25T08:41:16;8.23;;;7.43;;
41952;SDS011;63613;28.200;112.870;2023-04-25T08:43:46;8.95;;;7.72;;
41952;SDS011;63613;28.200;112.870;2023-04-25T08:46:17;8.27;;;7.13;;
41952;SDS011;63613;28.200;112.870;2023-04-25T08:48:45;9.13;;;7.60;;
41952;SDS011;63613;28.200;112.870;2023-04-25T08:51:15;9.25;;;7.68;;
41952;SDS011;63613;28.200;112.870;2023-04-25T08:53:51;7.95;;;7.07;;
41952;SDS011;63613;28.200;112.870;2023-04-25T08:56:18;8.27;;;7.10;;
41952;SDS011;63613;28.200;112.870;2023-04-25T08:58:48;8.43;;;7.63;;
41952;SDS011;63613;28.200;112.870;2023-04-25T09:01:18;7.90;;;7.10;;
41952;SDS011;63613;28.200;112.870;2023-04-25T09:03:45;8.73;;;7.57;;
41952;SDS011;63613;28.200;112.870;2023-04-25T09:06:12;7.70;;;6.90;;
41952;SDS011;63613;28.200;112.870;2023-04-25T09:08:41;7.97;;;7.18;;
41952;SDS011;63613;28.200;112.870;2023-04-25T09:11:08;8.25;;;7.38;;
41952;SDS011;63613;28.200;112.870;2023-04-25T09:13:35;7.22;;;6.53;;
41952;SDS011;63613;28.200;112.870;2023-04-25T09:16:02;9.45;;;7.38;;
41952;SDS011;63613;28.200;112.870;2023-04-25T09:18:29;9.40;;;7.65;;
41952;SDS011;63613;28.200;112.870;2023-04-25T09:21:07;7.97;;;7.18;;
41952;SDS011;63613;28.200;112.870;2023-04-25T09:23:46;7.25;;;6.53;;
41952;SDS011;63613;28.200;112.870;2023-04-25T09:26:14;7.80;;;6.57;;
41952;SDS011;63613;28.200;112.870;2023-04-25T09:28:47;7.60;;;6.90;;
41952;SDS011;63613;28.200;112.870;2023-04-25T09:31:34;7.40;;;6.70;;
41952;SDS011;63613;28.200;112.870;2023-04-25T09:34:01;7.75;;;6.47;;
41952;SDS011;63613;28.200;112.870;2023-04-25T09:36:29;7.78;;;6.85;;
41952;SDS011;63613;28.200;112.870;2023-04-25T09:38:57;7.07;;;6.47;;
41952;SDS011;63613;28.200;112.870;2023-04-25T09:41:26;7.55;;;6.85;;
41952;SDS011;63613;28.200;112.870;2023-04-25T09:46:40;7.07;;;6.38;;
41952;SDS011;63613;28.200;112.870;2023-04-25T09:49:07;6.45;;;5.85;;
41952;SDS011;63613;28.200;112.870;2023-04-25T09:51:34;8.13;;;6.22;;
41952;SDS011;63613;28.200;112.870;2023-04-25T09:54:01;5.68;;;5.18;;
41952;SDS011;63613;28.200;112.870;2023-04-25T09:56:28;7.38;;;6.18;;
41952;SDS011;63613;28.200;112.870;2023-04-25T09:58:59;6.80;;;6.13;;
41952;SDS011;63613;28.200;112.870;2023-04-25T10:01:26;6.38;;;5.72;;
41952;SDS011;63613;28.200;112.870;2023-04-25T10:03:56;6.72;;;6.05;;
41952;SDS011;63613;28.200;112.870;2023-04-25T10:06:24;6.72;;;6.13;;
41952;SDS011;63613;28.200;112.870;2023-04-25T10:08:53;6.63;;;5.97;;
41952;SDS011;63613;28.200;112.870;2023-04-25T10:11:21;5.82;;;5.22;;
41952;SDS011;63613;28.200;112.870;2023-04-25T10:13:50;6.68;;;6.00;;
41952;SDS011;63613;28.200;112.870;2023-04-25T10:16:18;6.72;;;6.03;;
41952;SDS011;63613;28.200;112.870;2023-04-25T10:18:45;6.50;;;5.90;;
41952;SDS011;63613;28.200;112.870;2023-04-25T10:21:12;6.15;;;5.53;;
41952;SDS011;63613;28.200;112.870;2023-04-25T10:23:40;7.15;;;6.45;;
41952;SDS011;63613;28.200;112.870;2023-04-25T10:26:08;6.93;;;6.22;;
41952;SDS011;63613;28.200;112.870;2023-04-25T10:31:23;7.75;;;6.65;;
41952;SDS011;63613;28.200;112.870;2023-04-25T10:33:51;7.35;;;6.65;;
41952;SDS011;63613;28.200;112.870;2023-04-25T10:36:19;9.20;;;6.30;;
41952;SDS011;63613;28.200;112.870;2023-04-25T10:38:51;6.68;;;6.07;;
41952;SDS011;63613;28.200;112.870;2023-04-25T10:41:18;6.80;;;5.70;;
41952;SDS011;63613;28.200;112.870;2023-04-25T10:43:49;7.35;;;6.65;;
41952;SDS011;63613;28.200;112.870;2023-04-25T10:46:29;6.82;;;5.97;;
41952;SDS011;63613;28.200;112.870;2023-04-25T10:49:01;6.47;;;5.82;;
41952;SDS011;63613;28.200;112.870;2023-04-25T10:51:32;7.88;;;6.13;;
41952;SDS011;63613;28.200;112.870;2023-04-25T10:54:04;7.20;;;6.47;;
41952;SDS011;63613;28.200;112.870;2023-04-25T10:56:33;7.22;;;6.05;;
41952;SDS011;63613;28.200;112.870;2023-04-25T10:59:10;6.35;;;5.75;;
41952;SDS011;63613;28.200;112.870;2023-04-25T11:01:42;7.70;;;6.20;;
41952;SDS011;63613;28.200;112.870;2023-04-25T11:04:28;6.32;;;5.70;;
41952;SDS011;63613;28.200;112.870;2023-04-25T11:09:37;7.63;;;5.90;;
41952;SDS011;63613;28.200;112.870;2023-04-25T11:12:07;8.10;;;6.30;;
41952;SDS011;63613;28.200;112.870;2023-04-25T11:14:35;7.30;;;5.95;;
41952;SDS011;63613;28.200;112.870;2023-04-25T11:17:02;6.88;;;6.00;;
41952;SDS011;63613;28.200;112.870;2023-04-25T11:19:29;8.30;;;6.97;;
41952;SDS011;63613;28.200;112.870;2023-04-25T11:21:57;8.75;;;6.70;;
41952;SDS011;63613;28.200;112.870;2023-04-25T11:24:34;8.32;;;6.40;;
41952;SDS011;63613;28.200;112.870;2023-04-25T11:27:04;7.80;;;6.70;;
41952;SDS011;63613;28.200;112.870;2023-04-25T11:29:32;7.95;;;6.30;;
41952;SDS011;63613;28.200;112.870;2023-04-25T11:31:59;7.93;;;6.13;;
41952;SDS011;63613;28.200;112.870;2023-04-25T11:34:27;7.47;;;6.63;;
41952;SDS011;63613;28.200;112.870;2023-04-25T11:36:59;7.80;;;7.00;;
41952;SDS011;63613;28.200;112.870;2023-04-25T11:39:27;8.00;;;6.80;;
41952;SDS011;63613;28.200;112.870;2023-04-25T11:41:54;8.98;;;7.05;;
41952;SDS011;63613;28.200;112.870;2023-04-25T11:44:22;8.13;;;6.72;;
41952;SDS011;63613;28.200;112.870;2023-04-25T11:46:49;9.82;;;7.28;;
41952;SDS011;63613;28.200;112.870;2023-04-25T11:49:17;10.82;;;6.68;;
41952;SDS011;63613;28.200;112.870;2023-04-25T11:51:44;9.95;;;7.88;;
41952;SDS011;63613;28.200;112.870;2023-04-25T11:54:15;9.93;;;7.75;;
41952;SDS011;63613;28.200;112.870;2023-04-25T11:56:44;9.55;;;6.78;;
41952;SDS011;63613;28.200;112.870;2023-04-25T11:59:11;11.35;;;9.05;;
41952;SDS011;63613;28.200;112.870;2023-04-25T12:01:39;11.98;;;9.43;;
41952;SDS011;63613;28.200;112.870;2023-04-25T12:04:16;12.90;;;11.05;;
41952;SDS011;63613;28.200;112.870;2023-04-25T12:06:44;13.90;;;10.63;;
41952;SDS011;63613;28.200;112.870;2023-04-25T12:09:16;15.35;;;10.70;;
41952;SDS011;63613;28.200;112.870;2023-04-25T12:11:56;15.07;;;12.20;;
41952;SDS011;63613;28.200;112.870;2023-04-25T12:14:27;15.25;;;11.00;;
41952;SDS011;63613;28.200;112.870;2023-04-25T12:16:56;15.05;;;11.25;;
41952;SDS011;63613;28.200;112.870;2023-04-25T12:19:25;15.15;;;11.52;;
41952;SDS011;63613;28.200;112.870;2023-04-25T12:21:59;14.55;;;11.38;;
41952;SDS011;63613;28.200;112.870;2023-04-25T12:24:28;13.98;;;11.35;;
41952;SDS011;63613;28.200;112.870;2023-04-25T12:27:02;13.35;;;10.75;;
41952;SDS011;63613;28.200;112.870;2023-04-25T12:29:35;12.88;;;11.05;;
41952;SDS011;63613;28.200;112.870;2023-04-25T12:32:02;12.80;;;10.90;;
41952;SDS011;63613;28.200;112.870;2023-04-25T12:34:29;12.25;;;10.00;;
41952;SDS011;63613;28.200;112.870;2023-04-25T12:37:00;12.23;;;9.70;;
41952;SDS011;63613;28.200;112.870;2023-04-25T12:39:28;12.18;;;10.70;;
41952;SDS011;63613;28.200;112.870;2023-04-25T12:41:55;14.45;;;10.60;;
41952;SDS011;63613;28.200;112.870;2023-04-25T12:44:22;14.07;;;9.40;;
41952;SDS011;63613;28.200;112.870;2023-04-25T12:46:49;11.82;;;10.27;;
41952;SDS011;63613;28.200;112.870;2023-04-25T12:49:16;12.95;;;8.75;;
41952;SDS011;63613;28.200;112.870;2023-04-25T12:51:43;14.15;;;10.40;;
41952;SDS011;63613;28.200;112.870;2023-04-25T12:54:10;14.00;;;9.90;;
41952;SDS011;63613;28.200;112.870;2023-04-25T12:56:37;13.27;;;9.13;;
41952;SDS011;63613;28.200;112.870;2023-04-25T12:59:04;11.73;;;9.70;;
41952;SDS011;63613;28.200;112.870;2023-04-25T13:01:30;10.30;;;8.98;;
41952;SDS011;63613;28.200;112.870;2023-04-25T13:03:58;12.48;;;8.88;;
41952;SDS011;63613;28.200;112.870;2023-04-25T13:06:46;12.63;;;9.55;;
41952;SDS011;63613;28.200;112.870;2023-04-25T13:09:33;12.23;;;8.93;;
41952;SDS011;63613;28.200;112.870;2023-04-25T13:12:00;10.80;;;8.70;;
41952;SDS011;63613;28.200;112.870;2023-04-25T13:14:27;11.40;;;8.25;;
41952;SDS011;63613;28.200;112.870;2023-04-25T13:17:14;11.13;;;8.68;;
41952;SDS011;63613;28.200;112.870;2023-04-25T13:19:42;11.55;;;8.52;;
41952;SDS011;63613;28.200;112.870;2023-04-25T13:22:21;10.68;;;8.50;;
41952;SDS011;63613;28.200;112.870;2023-04-25T13:24:49;11.85;;;8.93;;
41952;SDS011;63613;28.200;112.870;2023-04-25T13:27:15;11.50;;;8.82;;
41952;SDS011;63613;28.200;112.870;2023-04-25T13:29:42;10.07;;;8.27;;
41952;SDS011;63613;28.200;112.870;2023-04-25T13:32:11;10.10;;;8.40;;
41952;SDS011;63613;28.200;112.870;2023-04-25T13:34:39;11.70;;;9.27;;
41952;SDS011;63613;28.200;112.870;2023-04-25T13:37:06;10.40;;;8.30;;
41952;SDS011;63613;28.200;112.870;2023-04-25T13:39:33;16.15;;;8.23;;
41952;SDS011;63613;28.200;112.870;2023-04-25T13:44:47;9.15;;;7.93;;
41952;SDS011;63613;28.200;112.870;2023-04-25T13:47:13;9.77;;;8.05;;
41952;SDS011;63613;28.200;112.870;2023-04-25T13:49:42;11.55;;;8.00;;
41952;SDS011;63613;28.200;112.870;2023-04-25T13:52:10;11.00;;;8.50;;
41952;SDS011;63613;28.200;112.870;2023-04-25T13:54:41;11.48;;;8.82;;
41952;SDS011;63613;28.200;112.870;2023-04-25T13:57:08;10.80;;;8.60;;
41952;SDS011;63613;28.200;112.870;2023-04-25T13:59:56;13.20;;;9.27;;
41952;SDS011;63613;28.200;112.870;2023-04-25T14:02:23;10.57;;;8.32;;
41952;SDS011;63613;28.200;112.870;2023-04-25T14:04:50;12.68;;;9.77;;
41952;SDS011;63613;28.200;112.870;2023-04-25T14:07:17;13.70;;;9.30;;
41952;SDS011;63613;28.200;112.870;2023-04-25T14:09:46;15.38;;;9.82;;
41952;SDS011;63613;28.200;112.870;2023-04-25T14:12:28;13.27;;;9.80;;
41952;SDS011;63613;28.200;112.870;2023-04-25T14:14:54;15.25;;;10.35;;
41952;SDS011;63613;28.200;112.870;2023-04-25T14:17:23;17.08;;;11.20;;
41952;SDS011;63613;28.200;112.870;2023-04-25T14:19:50;14.05;;;10.52;;
41952;SDS011;63613;28.200;112.870;2023-04-25T14:22:17;13.10;;;10.48;;
41952;SDS011;63613;28.200;112.870;2023-04-25T14:24:44;16.55;;;10.75;;
41952;SDS011;63613;28.200;112.870;2023-04-25T14:27:11;15.43;;;10.20;;